Roswell International Air Center Airport
KROW : rendu visible

Aérodrome :











RETROUVEZ-NOUS SUR...

 
LOGIN :

S'inscrire | Disclaimer

   EN    FR    IT 

 









Légende :    VFR   VFR Marginal   IFR   IFR Intensif   IFR Très Intensif
Visi : 
Plafond : 
>= 8 km
>= 3000ft
5 à 8 km
1000 à 3000 ft
1500m à 5 km
500 à 1000 ft
800 à 1500m
200 à 500 ft
< 800m
< 200 ft
Symboles :   Orages  Brouillard  Fortes neiges  Fortes précipitations  Vent > 20 kt






- Altitude de l'aérodrome : 3671 ft
- Code IATA : ROW


KROW - Roswell International Air Center

DERNIER METAR :
  • 040751Z AUTO 11004KT 10SM CLR 23/14 A2994 RMK AO2 RAE0657 TSE07 SLP066 P0000 T02280139

METARs EXPIRÉS :
  • 040713Z AUTO 18011KT 10SM CLR 25/13 A2994 RMK AO2 RAE0657 TSE07 P0000 T02500128
  • 040651Z AUTO 17010KT 10SM -TSRA FEW029 FEW060 BKN100 25/16 A2996 RMK AO2 RAB34 TSB25E40B41 SLP070 P0000 T02500156 403560194
  • 040631Z AUTO 32003KT 10SM TS FEW055 BKN110 27/12 A2997 RMK AO2 TSB25 T02720117
  • 040613Z AUTO 00000KT 10SM VCTS FEW120 26/13 A2997 RMK AO2 LTG DSNT N T02610128
  • 040551Z AUTO 20006KT 10SM CLR 26/13 A2995 RMK AO2 LTG DSNT N AND NW SLP069 T02610128 10350 20256 53006

TAF KROW
Valide du 04 à 06h jusqu'au 05 à 06h UTC


040535Z 0406/0506 15007KT P6SM VCTS BKN070CB
FM040800 17004KT P6SM FEW250
FM041800 16011KT P6SM SKC
FM042200 17011KT P6SM VCSH SCT130
FM050100 18008KT P6SM FEW130
FIR KZAB / Amérique du Nord



MET'MAP, la Météo Aéronautique d'un coup d'oeil ! - Copyright ORBIFLY Décembre 2007 - Disclaimer

ORBIFLY MET'MAP TEAM :

Programmation & Développement : Alexandra Zaïnal
Sur une idée originale de : Baudouin d'Aumeries
Assistance à la programmation : Marc-Olivier Méhu
Soutien technique & logistique : Manuel Goepfert

Contact : metmap@orbifly.com




SOURCES & CREDITS :

   NOAA       Earth
Advisory